Time;durP1;ratioP1;P1;durP2;ratioP2;P2;SDS_P1;SDS_P2;PMS_P1;PMS_P2;Temp;Humidity;BMP_temperature;BMP_pressure;BME280_temperature;BME280_humidity;BME280_pressure;Samples;Min_cycle;Max_cycle;Signal;HPM_P1;HPM_P2
2022/12/29 00:02:03;;;;;;;;;;;;;;;9.71;100.00;100069.22;4992699;28;20277;-64
2022/12/29 00:04:28;;;;;;;;;;;;;;;9.71;100.00;100076.13;4993832;28;20272;-64
2022/12/29 00:06:54;;;;;;;;;;;;;;;9.72;100.00;100077.81;4983867;28;20313;-64
2022/12/29 00:09:19;;;;;;;;;;;;;;;9.69;100.00;100072.75;4993467;28;20311;-64
2022/12/29 00:11:44;;;;;;;;;;;;;;;9.70;100.00;100070.09;4992599;28;20295;-64
2022/12/29 00:16:54;;;;;;;;;;;;;;;9.75;100.00;100064.78;4996874;28;20379;-64
2022/12/29 00:35:42;;;;;;;;;;;;;;;9.65;100.00;100043.53;4990800;28;19960;-66
2022/12/29 00:46:20;;;;;;;;;;;;;;;9.54;100.00;100045.63;4992742;28;19963;-67
2022/12/29 00:51:29;;;;;;;;;;;;;;;9.43;100.00;100027.84;4996711;28;19964;-64
2022/12/29 00:53:54;;;;;;;;;;;;;;;9.41;100.00;100026.25;4995609;28;19953;-65
2022/12/29 00:56:20;;;;;;;;;;;;;;;9.35;100.00;100014.31;4996423;28;19960;-65
2022/12/29 00:58:45;;;;;;;;;;;;;;;9.33;100.00;100018.72;4997041;28;19967;-65
2022/12/29 01:01:10;;;;;;;;;;;;;;;9.33;100.00;100013.53;4993531;28;20019;-65
2022/12/29 01:03:37;;;;;;;;;;;;;;;9.31;100.00;100004.97;4994002;28;19924;-65
2022/12/29 01:06:03;;;;;;;;;;;;;;;9.31;100.00;100012.75;4982547;28;19940;-65
2022/12/29 01:08:29;;;;;;;;;;;;;;;9.29;100.00;100008.50;4995771;28;19918;-65
2022/12/29 01:10:58;;;;;;;;;;;;;;;9.28;100.00;100009.41;4996121;28;19921;-65
2022/12/29 01:13:23;;;;;;;;;;;;;;;9.26;100.00;99998.28;4995185;28;20272;-65
2022/12/29 01:15:52;;;;;;;;;;;;;;;9.24;100.00;100005.22;4995167;28;19914;-65
2022/12/29 01:18:17;;;;;;;;;;;;;;;9.19;100.00;99992.44;4995346;28;19949;-65
2022/12/29 01:20:42;;;;;;;;;;;;;;;9.17;100.00;99989.06;4978276;28;19952;-65
2022/12/29 01:23:07;;;;;;;;;;;;;;;9.16;100.00;99989.09;4996773;28;20377;-65
2022/12/29 01:25:32;;;;;;;;;;;;;;;9.17;100.00;99990.78;4993859;28;20262;-65
2022/12/29 01:27:58;;;;;;;;;;;;;;;9.15;100.00;99987.41;4977289;28;20369;-65
2022/12/29 01:30:23;;;;;;;;;;;;;;;9.15;100.00;99985.66;4996106;28;19956;-65
2022/12/29 01:32:48;;;;;;;;;;;;;;;9.23;100.00;99985.44;4994724;28;19917;-65
2022/12/29 01:35:13;;;;;;;;;;;;;;;9.26;100.00;99975.00;4994655;28;19913;-65
2022/12/29 01:37:38;;;;;;;;;;;;;;;9.28;100.00;99963.69;4988922;28;19914;-65
2022/12/29 01:40:04;;;;;;;;;;;;;;;9.27;100.00;99972.38;4995433;28;19913;-66
2022/12/29 01:42:29;;;;;;;;;;;;;;;9.27;100.00;99972.38;4996493;28;19917;-65
2022/12/29 01:44:54;;;;;;;;;;;;;;;9.37;100.00;99955.63;4995631;28;20331;-65
2022/12/29 01:47:38;;;;;;;;;;;;;;;9.40;100.00;99965.06;4994981;28;19917;-65
2022/12/29 01:50:07;;;;;;;;;;;;;;;9.33;100.00;99961.81;4994388;28;19964;-65
2022/12/29 01:52:33;;;;;;;;;;;;;;;9.37;100.00;99968.56;4993475;28;19921;-65
2022/12/29 01:54:59;;;;;;;;;;;;;;;9.34;100.00;99958.34;4994439;28;20001;-64
2022/12/29 01:57:27;;;;;;;;;;;;;;;9.33;100.00;99955.81;4995706;28;19917;-65
2022/12/29 01:59:55;;;;;;;;;;;;;;;9.41;100.00;99966.75;4995886;28;19913;-64
2022/12/29 02:02:21;;;;;;;;;;;;;;;9.40;100.00;99968.47;4994647;28;19910;-64
2022/12/29 02:04:46;;;;;;;;;;;;;;;9.43;100.00;99963.19;4994055;28;19946;-64
2022/12/29 02:07:15;;;;;;;;;;;;;;;9.43;100.00;99965.78;4993530;28;20287;-64
2022/12/29 02:09:41;;;;;;;;;;;;;;;9.47;100.00;99961.38;4995051;28;19929;-64
2022/12/29 02:12:06;;;;;;;;;;;;;;;9.50;100.00;99946.56;4994547;28;19913;-64
2022/12/29 02:14:32;;;;;;;;;;;;;;;9.56;100.00;99952.44;4986284;28;19933;-65
2022/12/29 02:17:00;;;;;;;;;;;;;;;9.56;100.00;99961.03;4993148;28;19952;-64
2022/12/29 02:19:44;;;;;;;;;;;;;;;9.57;100.00;99969.66;4993545;28;19950;-64
2022/12/29 02:22:09;;;;;;;;;;;;;;;9.59;100.00;99968.72;4991657;28;19910;-64
2022/12/29 02:24:43;;;;;;;;;;;;;;;9.58;100.00;99964.44;4994194;28;20008;-64
2022/12/29 02:27:23;;;;;;;;;;;;;;;9.63;100.00;99969.44;4994593;28;20343;-64
2022/12/29 02:29:49;;;;;;;;;;;;;;;9.67;100.00;99979.66;4994938;28;19925;-64
2022/12/29 02:32:17;;;;;;;;;;;;;;;9.72;100.00;99959.63;4994755;28;19913;-64
2022/12/29 02:35:00;;;;;;;;;;;;;;;9.75;100.00;99959.53;4994472;28;19917;-64
2022/12/29 02:37:30;;;;;;;;;;;;;;;9.91;100.00;99959.84;4991415;28;19921;-64
2022/12/29 02:40:22;;;;;;;;;;;;;;;9.89;100.00;99959.06;4995414;28;19913;-64
2022/12/29 02:42:55;;;;;;;;;;;;;;;9.88;100.00;99947.00;4994965;28;19949;-64
2022/12/29 02:45:27;;;;;;;;;;;;;;;9.89;100.00;99959.88;4993181;28;19914;-64
2022/12/29 02:48:17;;;;;;;;;;;;;;;9.91;100.00;99955.50;4994798;28;19964;-64
2022/12/29 02:50:46;;;;;;;;;;;;;;;9.93;100.00;99946.84;4985080;28;20019;-67
2022/12/29 02:53:14;;;;;;;;;;;;;;;9.99;100.00;99946.63;4992300;28;19944;-66
2022/12/29 02:55:47;;;;;;;;;;;;;;;9.97;100.00;99959.63;4992717;28;19906;-66
2022/12/29 02:58:15;;;;;;;;;;;;;;;9.97;100.00;99946.66;4992020;28;19941;-67
2022/12/29 03:00:48;;;;;;;;;;;;;;;9.94;100.00;99954.56;4992019;28;20609;-67
2022/12/29 03:03:26;;;;;;;;;;;;;;;9.96;100.00;99950.19;4991746;28;19916;-66
2022/12/29 03:05:51;;;;;;;;;;;;;;;9.91;100.00;99933.94;4991460;28;19917;-67
2022/12/29 03:08:29;;;;;;;;;;;;;;;9.97;100.00;99951.00;4991104;28;19918;-67
2022/12/29 03:10:57;;;;;;;;;;;;;;;9.97;100.00;99938.91;4987960;28;20321;-67
2022/12/29 03:16:22;;;;;;;;;;;;;;;10.00;100.00;99941.41;4991713;28;20001;-66
2022/12/29 03:18:55;;;;;;;;;;;;;;;10.03;100.00;99945.63;4991580;28;19914;-66
2022/12/29 03:22:26;;;;;;;;;;;;;;;10.05;100.00;99939.47;4991609;28;19914;-66
2022/12/29 03:24:12;;;;;;;;;;;;;;;10.02;100.00;99949.13;4979169;28;20288;-67
2022/12/29 03:26:37;;;;;;;;;;;;;;;10.01;100.00;99948.25;4992129;28;20359;-66
2022/12/29 03:29:05;;;;;;;;;;;;;;;10.10;100.00;99950.50;4992268;28;19991;-66
2022/12/29 03:31:31;;;;;;;;;;;;;;;10.04;100.00;99942.13;4992397;28;19913;-66
2022/12/29 03:33:56;;;;;;;;;;;;;;;10.07;100.00;99945.47;4991794;28;19921;-66
2022/12/29 03:36:30;;;;;;;;;;;;;;;10.09;100.00;99929.88;4990225;28;19921;-66
2022/12/29 03:39:06;;;;;;;;;;;;;;;10.07;100.00;99939.44;4987898;28;19968;-66
2022/12/29 03:41:32;;;;;;;;;;;;;;;10.10;100.00;99932.38;4991571;28;19917;-66
2022/12/29 03:43:58;;;;;;;;;;;;;;;10.04;100.00;99940.38;4991506;28;20403;-67
2022/12/29 03:46:23;;;;;;;;;;;;;;;10.03;100.00;99924.91;4992091;28;19917;-67
2022/12/29 03:48:48;;;;;;;;;;;;;;;10.02;100.00;99939.59;4991778;28;19914;-66
2022/12/29 03:51:13;;;;;;;;;;;;;;;9.97;100.00;99943.22;4993391;28;20387;-66
2022/12/29 03:53:38;;;;;;;;;;;;;;;9.95;100.00;99945.91;4992202;28;19936;-66
2022/12/29 03:56:04;;;;;;;;;;;;;;;10.01;100.00;99942.25;4994111;28;20404;-66
2022/12/29 03:58:29;;;;;;;;;;;;;;;9.91;100.00;99931.34;4995040;28;19996;-66
2022/12/29 04:00:54;;;;;;;;;;;;;;;9.81;100.00;99943.78;4994965;28;19914;-67
2022/12/29 04:03:20;;;;;;;;;;;;;;;9.85;100.00;99954.88;4990672;28;19913;-66
2022/12/29 04:05:45;;;;;;;;;;;;;;;9.81;100.00;99932.59;4994345;28;19989;-67
2022/12/29 04:08:10;;;;;;;;;;;;;;;9.81;100.00;99935.19;4992891;28;19949;-67
2022/12/29 04:10:35;;;;;;;;;;;;;;;9.84;100.00;99963.53;4995013;28;19917;-67
2022/12/29 04:13:00;;;;;;;;;;;;;;;9.82;100.00;99953.25;4987173;28;19957;-66
2022/12/29 04:15:26;;;;;;;;;;;;;;;9.79;100.00;99970.63;4995280;28;19960;-67
2022/12/29 04:17:51;;;;;;;;;;;;;;;9.76;100.00;99950.84;4970439;28;19925;-66
2022/12/29 04:23:04;;;;;;;;;;;;;;;9.66;100.00;99953.81;4995251;28;19932;-67
2022/12/29 04:25:30;;;;;;;;;;;;;;;9.56;100.00;99970.53;4990092;28;19922;-67
2022/12/29 04:27:55;;;;;;;;;;;;;;;9.42;100.00;99963.22;4994706;28;19914;-67
2022/12/29 04:30:20;;;;;;;;;;;;;;;9.35;100.00;99959.16;4994009;28;19991;-67
2022/12/29 04:32:46;;;;;;;;;;;;;;;9.27;100.00;99963.75;4995568;28;20368;-67
2022/12/29 04:35:11;;;;;;;;;;;;;;;9.26;100.00;99965.50;4992905;28;20025;-67
2022/12/29 04:37:36;;;;;;;;;;;;;;;9.19;100.00;99964.00;4995719;28;19909;-67
2022/12/29 04:40:01;;;;;;;;;;;;;;;9.08;100.00;99966.91;4993403;28;20299;-67
2022/12/29 04:42:26;;;;;;;;;;;;;;;8.98;100.00;99957.78;4976739;28;19963;-67
2022/12/29 04:44:52;;;;;;;;;;;;;;;8.96;100.00;99975.06;4993669;28;19918;-67
2022/12/29 04:47:17;;;;;;;;;;;;;;;8.98;100.00;99975.03;4995466;28;19941;-67
2022/12/29 04:49:42;;;;;;;;;;;;;;;8.93;100.00;99967.41;4995672;28;19924;-65
2022/12/29 04:52:08;;;;;;;;;;;;;;;8.89;100.00;99973.56;4997000;28;19906;-64
2022/12/29 04:54:33;;;;;;;;;;;;;;;8.88;100.00;99965.84;4993278;28;20000;-65
2022/12/29 04:56:58;;;;;;;;;;;;;;;8.83;100.00;99981.50;4994509;28;19921;-64
2022/12/29 04:59:24;;;;;;;;;;;;;;;8.76;100.00;99986.91;4996202;28;19964;-64
2022/12/29 05:01:49;;;;;;;;;;;;;;;8.63;100.00;99995.03;4994560;28;19956;-64
2022/12/29 05:04:14;;;;;;;;;;;;;;;8.61;100.00;99991.63;4996311;28;19914;-64
2022/12/29 05:06:39;;;;;;;;;;;;;;;8.66;100.00;100000.09;4996486;28;20292;-64
2022/12/29 05:09:05;;;;;;;;;;;;;;;8.66;100.00;100007.00;4995549;28;19918;-64
2022/12/29 05:11:30;;;;;;;;;;;;;;;8.63;100.00;100007.94;4994620;28;19918;-64
2022/12/29 05:13:55;;;;;;;;;;;;;;;8.66;100.00;100007.84;4995324;28;19914;-64
2022/12/29 05:16:20;;;;;;;;;;;;;;;8.60;100.00;100012.31;4994342;28;19921;-64
2022/12/29 05:18:45;;;;;;;;;;;;;;;8.52;100.00;100022.06;4996448;28;19909;-64
2022/12/29 05:21:11;;;;;;;;;;;;;;;8.55;100.00;100033.13;4995862;28;19914;-64
2022/12/29 05:23:36;;;;;;;;;;;;;;;8.53;100.00;100022.00;4996054;28;19953;-64
2022/12/29 05:26:01;;;;;;;;;;;;;;;8.47;100.00;100036.81;4993486;28;20378;-64
2022/12/29 05:28:26;;;;;;;;;;;;;;;8.47;100.00;100035.09;4994486;28;20402;-64
2022/12/29 05:30:52;;;;;;;;;;;;;;;8.43;100.00;100042.97;4994152;28;19949;-64
2022/12/29 05:33:17;;;;;;;;;;;;;;;8.41;100.00;100039.56;4996498;28;19906;-63
2022/12/29 05:35:42;;;;;;;;;;;;;;;8.43;100.00;100048.13;4994104;28;19917;-64
2022/12/29 05:38:08;;;;;;;;;;;;;;;8.51;100.00;100059.94;4995148;28;19924;-64
2022/12/29 05:40:33;;;;;;;;;;;;;;;8.60;100.00;100051.91;4994697;28;20360;-64
2022/12/29 05:42:58;;;;;;;;;;;;;;;8.68;100.00;100049.13;4995623;28;19913;-64
2022/12/29 05:45:23;;;;;;;;;;;;;;;8.69;100.00;100051.66;4995007;28;19917;-64
2022/12/29 05:47:49;;;;;;;;;;;;;;;8.75;100.00;100037.72;4991681;28;19921;-64
2022/12/29 05:50:14;;;;;;;;;;;;;;;8.75;100.00;100048.06;4992596;28;19932;-66
2022/12/29 05:52:39;;;;;;;;;;;;;;;8.73;100.00;100042.13;4989448;28;19918;-66
2022/12/29 05:55:04;;;;;;;;;;;;;;;8.70;100.00;100062.84;4991230;28;19996;-66
2022/12/29 05:57:30;;;;;;;;;;;;;;;8.77;100.00;100056.63;4995433;28;20416;-66
2022/12/29 05:59:55;;;;;;;;;;;;;;;8.78;100.00;100062.63;4990141;28;19964;-66
2022/12/29 06:02:20;;;;;;;;;;;;;;;8.80;100.00;100055.69;5002640;28;19936;-67
2022/12/29 06:04:45;;;;;;;;;;;;;;;8.89;100.00;100070.91;4996492;28;19918;-66
2022/12/29 06:07:10;;;;;;;;;;;;;;;8.90;100.00;100065.72;4995776;28;20012;-66
2022/12/29 06:09:36;;;;;;;;;;;;;;;8.92;100.00;100058.75;4992526;28;19921;-66
2022/12/29 06:12:01;;;;;;;;;;;;;;;8.96;100.00;100059.50;4996346;28;19975;-66
2022/12/29 06:14:26;;;;;;;;;;;;;;;9.05;100.00;100054.91;4986180;28;20285;-66
2022/12/29 06:16:51;;;;;;;;;;;;;;;9.03;100.00;100058.44;4986007;28;20380;-66
2022/12/29 06:19:16;;;;;;;;;;;;;;;9.01;100.00;100055.03;4994813;28;19917;-64
2022/12/29 06:21:42;;;;;;;;;;;;;;;9.00;100.00;100054.22;4995606;28;20027;-64
2022/12/29 06:24:07;;;;;;;;;;;;;;;9.00;100.00;100058.53;4991795;28;20376;-64
2022/12/29 06:26:32;;;;;;;;;;;;;;;9.07;100.00;100070.41;4995573;28;19924;-64
2022/12/29 06:28:57;;;;;;;;;;;;;;;9.00;100.00;100053.38;4982670;28;19920;-64
2022/12/29 06:31:23;;;;;;;;;;;;;;;9.01;100.00;100057.63;4995357;28;19910;-64
2022/12/29 06:33:48;;;;;;;;;;;;;;;8.93;100.00;100055.28;4991160;28;20241;-64
2022/12/29 06:36:13;;;;;;;;;;;;;;;8.82;100.00;100053.91;4985934;28;19910;-64
2022/12/29 06:38:38;;;;;;;;;;;;;;;8.86;100.00;100042.59;4991455;28;19917;-63
2022/12/29 06:41:03;;;;;;;;;;;;;;;8.83;100.00;100048.69;4994533;28;19913;-63
2022/12/29 06:43:30;;;;;;;;;;;;;;;8.79;100.00;100039.34;4995006;28;20010;-64
2022/12/29 06:45:55;;;;;;;;;;;;;;;8.73;100.00;100041.25;4969320;28;20013;-64
2022/12/29 06:48:20;;;;;;;;;;;;;;;8.68;100.00;100049.13;4989654;28;19929;-64
2022/12/29 06:50:46;;;;;;;;;;;;;;;8.69;100.00;100043.06;4995118;28;20064;-64
2022/12/29 06:53:11;;;;;;;;;;;;;;;8.68;100.00;100036.22;4995311;28;19909;-64
2022/12/29 06:55:36;;;;;;;;;;;;;;;8.73;100.00;100041.25;4994179;28;19914;-64
2022/12/29 06:58:01;;;;;;;;;;;;;;;8.71;100.00;100049.06;4994722;28;19916;-64
2022/12/29 07:00:27;;;;;;;;;;;;;;;8.71;100.00;100049.91;4995061;28;19957;-64
2022/12/29 07:02:54;;;;;;;;;;;;;;;8.73;100.00;100046.44;4995364;28;19914;-64
2022/12/29 07:05:19;;;;;;;;;;;;;;;8.72;100.00;100045.59;4981630;28;19956;-64
2022/12/29 07:07:44;;;;;;;;;;;;;;;8.80;100.00;100047.94;4990753;28;19910;-64
2022/12/29 07:10:10;;;;;;;;;;;;;;;8.83;100.00;100047.84;4992561;28;19952;-64
2022/12/29 07:12:35;;;;;;;;;;;;;;;8.89;100.00;100045.91;4994714;28;20368;-64
2022/12/29 07:15:00;;;;;;;;;;;;;;;8.96;100.00;100062.94;4979351;28;19918;-64
2022/12/29 07:17:25;;;;;;;;;;;;;;;9.11;100.00;100071.97;4975391;28;19910;-64
2022/12/29 07:19:50;;;;;;;;;;;;;;;9.14;100.00;100077.06;4975542;28;19914;-64
2022/12/29 07:22:16;;;;;;;;;;;;;;;9.11;100.00;100083.16;4975094;28;19921;-64
2022/12/29 07:24:42;;;;;;;;;;;;;;;9.25;100.00;100081.91;4991094;28;19913;-64
2022/12/29 07:27:08;;;;;;;;;;;;;;;9.17;100.00;100087.31;4998218;28;19980;-64
2022/12/29 07:29:33;;;;;;;;;;;;;;;9.12;100.00;100086.59;4996391;28;20000;-67
2022/12/29 07:31:58;;;;;;;;;;;;;;;9.07;100.00;100099.69;4995980;28;20411;-66
2022/12/29 07:34:24;;;;;;;;;;;;;;;9.12;100.00;100104.69;4996133;28;19920;-67
2022/12/29 07:36:49;;;;;;;;;;;;;;;9.06;100.00;100102.31;4996979;28;19910;-67
2022/12/29 07:39:14;;;;;;;;;;;;;;;9.08;100.00;100100.50;4996503;28;19910;-66
2022/12/29 07:41:39;;;;;;;;;;;;;;;9.04;100.00;100107.50;4996729;28;19960;-67
2022/12/29 07:44:04;;;;;;;;;;;;;;;8.95;100.00;100102.59;4996975;28;20387;-66
2022/12/29 07:46:30;;;;;;;;;;;;;;;8.90;100.00;100117.41;4995755;28;20204;-67
2022/12/29 07:48:55;;;;;;;;;;;;;;;8.79;100.00;100111.69;4997134;28;19910;-66
2022/12/29 07:51:20;;;;;;;;;;;;;;;8.78;100.00;100110.00;4996230;28;19956;-66
2022/12/29 07:53:45;;;;;;;;;;;;;;;8.68;100.00;100104.22;4997094;28;20002;-64
2022/12/29 07:56:10;;;;;;;;;;;;;;;8.64;100.00;100118.13;4996375;28;19914;-65
2022/12/29 07:58:36;;;;;;;;;;;;;;;8.62;100.00;100121.63;4996658;28;19909;-65
2022/12/29 08:01:01;;;;;;;;;;;;;;;8.69;100.00;100123.16;4995161;28;19920;-65
2022/12/29 08:03:26;;;;;;;;;;;;;;;8.78;100.00;100130.66;4989101;28;19910;-65
2022/12/29 08:05:51;;;;;;;;;;;;;;;8.84;100.00;100139.97;4990399;28;19921;-65
2022/12/29 08:08:16;;;;;;;;;;;;;;;8.92;100.00;100136.31;4995749;28;19917;-66
2022/12/29 08:10:42;;;;;;;;;;;;;;;9.00;100.00;100133.50;4996211;28;19909;-66
2022/12/29 08:13:07;;;;;;;;;;;;;;;9.03;100.00;100144.59;4995978;28;19917;-66
2022/12/29 08:15:32;;;;;;;;;;;;;;;9.05;100.00;100147.97;4992955;28;20346;-66
2022/12/29 08:17:57;;;;;;;;;;;;;;;9.07;100.00;100142.78;4978542;28;20233;-66
2022/12/29 08:20:23;;;;;;;;;;;;;;;9.11;100.00;100150.38;4996002;28;19968;-66
2022/12/29 08:22:48;;;;;;;;;;;;;;;9.18;100.00;100148.47;4995598;28;20319;-65
2022/12/29 08:25:13;;;;;;;;;;;;;;;9.18;100.00;100145.03;4995875;28;20477;-66
2022/12/29 08:27:39;;;;;;;;;;;;;;;9.24;100.00;100150.88;4993292;28;19925;-65
2022/12/29 08:30:04;;;;;;;;;;;;;;;9.39;100.00;100144.41;4984564;28;20384;-66
2022/12/29 08:32:29;;;;;;;;;;;;;;;9.47;100.00;100145.88;4994366;28;20407;-66
2022/12/29 08:34:54;;;;;;;;;;;;;;;9.40;98.74;100136.59;4984291;28;19910;-66
2022/12/29 08:37:20;;;;;;;;;;;;;;;9.42;99.22;100163.25;4994915;28;20329;-66
2022/12/29 08:39:45;;;;;;;;;;;;;;;9.46;98.53;100145.91;4988891;28;20372;-66
2022/12/29 08:42:10;;;;;;;;;;;;;;;9.47;98.35;100135.53;4976398;28;19914;-66
2022/12/29 08:44:36;;;;;;;;;;;;;;;9.52;97.53;100146.56;4991573;28;19964;-66
2022/12/29 08:47:01;;;;;;;;;;;;;;;9.65;96.98;100141.03;4995678;28;19963;-66
2022/12/29 08:49:26;;;;;;;;;;;;;;;9.56;96.79;100146.47;4995376;28;20388;-66
2022/12/29 08:51:51;;;;;;;;;;;;;;;9.61;98.11;100152.38;4967398;28;20037;-66
2022/12/29 08:54:17;;;;;;;;;;;;;;;9.63;99.35;100147.97;4993729;28;19906;-66
2022/12/29 08:56:42;;;;;;;;;;;;;;;9.75;97.31;100132.94;4995471;28;19910;-66
2022/12/29 08:59:07;;;;;;;;;;;;;;;9.78;97.07;100142.31;4994768;28;19916;-66
2022/12/29 09:01:35;;;;;;;;;;;;;;;9.84;94.32;100152.47;4994052;28;19921;-65
2022/12/29 09:04:00;;;;;;;;;;;;;;;9.78;96.54;100147.50;4994657;28;19918;-66
2022/12/29 09:06:25;;;;;;;;;;;;;;;9.90;94.76;100150.53;4994331;28;19918;-66
2022/12/29 09:08:50;;;;;;;;;;;;;;;9.95;95.62;100142.66;4992653;28;19918;-66
2022/12/29 09:11:17;;;;;;;;;;;;;;;9.97;96.98;100145.16;4984294;28;19917;-67
2022/12/29 09:13:43;;;;;;;;;;;;;;;9.96;96.84;100154.69;4993647;28;19914;-67
2022/12/29 09:16:09;;;;;;;;;;;;;;;9.98;95.97;100165.84;4975758;28;19909;-66
2022/12/29 09:18:35;;;;;;;;;;;;;;;9.98;95.62;100158.06;4995037;28;19910;-65
2022/12/29 09:21:01;;;;;;;;;;;;;;;10.07;94.11;100160.38;4994360;28;19979;-66
2022/12/29 09:23:27;;;;;;;;;;;;;;;10.02;95.86;100158.84;4994643;28;19981;-66
2022/12/29 09:25:52;;;;;;;;;;;;;;;10.06;95.39;100166.44;4995467;28;20021;-67
2022/12/29 09:28:18;;;;;;;;;;;;;;;10.11;93.99;100169.72;4994710;28;19949;-64
2022/12/29 09:30:43;;;;;;;;;;;;;;;10.14;93.32;100179.13;4983318;28;19959;-64
2022/12/29 09:33:08;;;;;;;;;;;;;;;10.22;94.76;100180.63;4996136;28;19917;-64
2022/12/29 09:35:33;;;;;;;;;;;;;;;10.16;96.02;100198.94;4995155;28;20187;-64
2022/12/29 09:37:59;;;;;;;;;;;;;;;10.10;95.40;100183.56;4996343;28;19909;-64
2022/12/29 09:40:29;;;;;;;;;;;;;;;10.07;96.50;100191.44;4982617;28;19949;-64
2022/12/29 09:42:57;;;;;;;;;;;;;;;10.09;95.86;100187.06;4985536;28;19937;-64
2022/12/29 09:45:52;;;;;;;;;;;;;;;10.01;95.73;100201.16;4975974;28;20008;-64
2022/12/29 09:48:19;;;;;;;;;;;;;;;10.06;96.08;100205.28;4976012;28;19917;-64
2022/12/29 09:50:48;;;;;;;;;;;;;;;10.17;95.39;100207.53;4996048;28;19955;-64
2022/12/29 09:53:31;;;;;;;;;;;;;;;10.09;97.27;100197.44;4995945;28;19909;-64
2022/12/29 09:55:59;;;;;;;;;;;;;;;10.11;98.40;100226.69;4995892;28;19909;-64
2022/12/29 09:58:43;;;;;;;;;;;;;;;10.21;95.15;100230.72;4995396;28;19909;-64
2022/12/29 10:01:18;;;;;;;;;;;;;;;9.95;97.60;100233.25;4984400;28;19964;-64
2022/12/29 10:03:48;;;;;;;;;;;;;;;10.08;96.50;100220.78;4982203;28;20020;-64
2022/12/29 10:06:23;;;;;;;;;;;;;;;9.90;98.87;100238.56;4983283;28;19925;-64
2022/12/29 10:08:57;;;;;;;;;;;;;;;9.86;99.75;100233.53;4984873;28;19925;-64
2022/12/29 10:11:41;;;;;;;;;;;;;;;9.87;98.87;100243.00;4989348;28;19917;-64
2022/12/29 10:14:18;;;;;;;;;;;;;;;9.72;100.00;100269.31;4995143;28;19913;-64
2022/12/29 10:16:49;;;;;;;;;;;;;;;9.68;99.60;100241.84;4982216;28;19921;-65
2022/12/29 10:19:41;;;;;;;;;;;;;;;9.57;100.00;100270.63;4994498;28;20423;-64
2022/12/29 10:22:36;;;;;;;;;;;;;;;9.48;100.00;100270.91;4995219;28;20371;-64
2022/12/29 10:25:10;;;;;;;;;;;;;;;9.45;100.00;100270.97;4925219;28;19919;-64
2022/12/29 10:27:36;;;;;;;;;;;;;;;9.47;100.00;100272.63;4995247;28;19957;-64
2022/12/29 10:30:02;;;;;;;;;;;;;;;9.55;100.00;100287.94;4994951;28;19983;-64
2022/12/29 10:32:43;;;;;;;;;;;;;;;9.66;100.00;100278.13;4994165;28;19960;-64
2022/12/29 10:35:16;;;;;;;;;;;;;;;9.50;100.00;100292.38;4994345;28;19913;-64
2022/12/29 10:37:41;;;;;;;;;;;;;;;9.43;100.00;100307.22;4973972;28;20316;-64
2022/12/29 10:40:16;;;;;;;;;;;;;;;9.42;100.00;100302.94;4994803;28;19916;-64
2022/12/29 10:42:44;;;;;;;;;;;;;;;9.43;100.00;100304.63;4981608;28;20285;-64
2022/12/29 10:45:14;;;;;;;;;;;;;;;9.47;100.00;100314.03;4994577;28;19912;-64
2022/12/29 10:47:47;;;;;;;;;;;;;;;9.50;100.00;100310.50;4986717;28;19914;-65
2022/12/29 10:50:12;;;;;;;;;;;;;;;9.58;100.00;100315.44;4994751;28;20380;-64
2022/12/29 10:52:38;;;;;;;;;;;;;;;9.49;100.00;100325.16;4981488;28;19957;-64
2022/12/29 10:55:15;;;;;;;;;;;;;;;9.47;100.00;100324.38;4995050;28;19913;-64
2022/12/29 10:57:44;;;;;;;;;;;;;;;9.46;100.00;100332.16;4980397;28;19937;-64
2022/12/29 11:00:14;;;;;;;;;;;;;;;9.42;100.00;100331.38;4975096;28;19910;-64
2022/12/29 11:02:50;;;;;;;;;;;;;;;9.44;100.00;100331.34;4984002;28;19941;-65
2022/12/29 11:05:41;;;;;;;;;;;;;;;9.41;100.00;100339.22;4994394;28;19910;-64
2022/12/29 11:08:11;;;;;;;;;;;;;;;9.39;100.00;100347.00;4963140;28;19922;-64
2022/12/29 11:10:39;;;;;;;;;;;;;;;9.46;100.00;100340.78;4981857;28;19913;-64
2022/12/29 11:13:12;;;;;;;;;;;;;;;9.44;100.00;100364.97;4994262;28;19910;-64
2022/12/29 11:15:39;;;;;;;;;;;;;;;9.53;100.00;100364.75;4994717;28;19953;-64
2022/12/29 11:18:04;;;;;;;;;;;;;;;9.56;100.00;100366.38;5007400;28;19910;-64
2022/12/29 11:20:34;;;;;;;;;;;;;;;9.63;100.00;100362.75;4994357;28;19961;-64
2022/12/29 11:23:00;;;;;;;;;;;;;;;9.73;100.00;100366.78;4987698;28;19910;-64
2022/12/29 11:25:25;;;;;;;;;;;;;;;9.70;100.00;100374.63;4987504;28;19963;-64
2022/12/29 11:27:57;;;;;;;;;;;;;;;9.67;100.00;100359.19;4975726;28;20304;-64
2022/12/29 11:30:23;;;;;;;;;;;;;;;9.53;100.00;100377.69;4988099;28;20387;-64
2022/12/29 11:32:53;;;;;;;;;;;;;;;9.49;100.00;100376.91;4994281;28;19914;-64
2022/12/29 11:35:32;;;;;;;;;;;;;;;9.54;100.00;100379.38;4994580;28;20416;-64
2022/12/29 11:37:58;;;;;;;;;;;;;;;9.48;100.00;100385.53;4994847;28;19928;-64
2022/12/29 11:40:24;;;;;;;;;;;;;;;9.53;100.00;100393.22;4994106;28;19916;-64
2022/12/29 11:42:56;;;;;;;;;;;;;;;9.49;100.00;100378.63;4981818;28;20344;-64
2022/12/29 11:45:42;;;;;;;;;;;;;;;9.58;100.00;100395.66;4994003;28;20396;-64
2022/12/29 11:48:09;;;;;;;;;;;;;;;9.72;100.00;100396.13;4994230;28;19917;-64
2022/12/29 11:50:37;;;;;;;;;;;;;;;9.70;100.00;100388.41;4994511;28;20037;-64
2022/12/29 11:53:13;;;;;;;;;;;;;;;9.62;100.00;100392.13;4985061;28;19964;-64
2022/12/29 11:55:38;;;;;;;;;;;;;;;9.63;100.00;100404.13;4992517;28;19917;-64
2022/12/29 11:58:04;;;;;;;;;;;;;;;9.65;100.00;100404.97;4993803;28;19905;-64
2022/12/29 12:00:31;;;;;;;;;;;;;;;9.69;100.00;100409.19;4964019;28;19913;-64
2022/12/29 12:02:59;;;;;;;;;;;;;;;9.77;100.00;100407.22;4985161;28;20349;-64
2022/12/29 12:05:53;;;;;;;;;;;;;;;9.81;100.00;100407.09;4991893;28;19918;-64
2022/12/29 12:08:23;;;;;;;;;;;;;;;9.83;100.00;100407.03;4994232;28;20018;-66
2022/12/29 12:10:56;;;;;;;;;;;;;;;9.84;100.00;100404.41;4973937;28;19909;-67
2022/12/29 12:13:21;;;;;;;;;;;;;;;9.78;100.00;100407.16;4991696;28;19917;-67
2022/12/29 12:15:49;;;;;;;;;;;;;;;9.76;100.00;100406.34;4996315;28;19914;-67
2022/12/29 12:18:38;;;;;;;;;;;;;;;9.78;100.00;100412.34;4995904;28;19960;-67
2022/12/29 12:21:12;;;;;;;;;;;;;;;9.83;100.00;100405.31;4985514;28;19909;-66
2022/12/29 12:23:56;;;;;;;;;;;;;;;9.79;100.00;100408.03;4994827;28;19914;-67
2022/12/29 12:26:28;;;;;;;;;;;;;;;9.73;100.00;100400.44;4995151;28;19914;-67
2022/12/29 12:29:04;;;;;;;;;;;;;;;9.67;100.00;100405.78;4989464;28;19942;-67
2022/12/29 12:31:45;;;;;;;;;;;;;;;9.51;100.00;100405.31;4976084;28;20467;-67
2022/12/29 12:34:17;;;;;;;;;;;;;;;9.52;100.00;100407.03;4976153;28;19910;-67
2022/12/29 12:37:02;;;;;;;;;;;;;;;9.56;100.00;100403.47;4979029;28;19917;-67
2022/12/29 12:39:46;;;;;;;;;;;;;;;9.61;100.00;100405.94;4995506;28;19914;-67
2022/12/29 12:42:24;;;;;;;;;;;;;;;9.61;100.00;100405.94;4973487;28;19918;-67
2022/12/29 12:44:49;;;;;;;;;;;;;;;9.68;100.00;100412.66;4990732;28;19913;-67
2022/12/29 12:47:33;;;;;;;;;;;;;;;9.77;100.00;100418.41;4995416;28;19983;-67
2022/12/29 12:50:16;;;;;;;;;;;;;;;9.80;100.00;100414.91;4992520;28;19910;-67
2022/12/29 12:53:00;;;;;;;;;;;;;;;9.83;99.48;100415.66;4976031;28;19914;-67
2022/12/29 12:55:34;;;;;;;;;;;;;;;9.91;99.54;100415.44;4976398;28;19910;-67
2022/12/29 12:58:19;;;;;;;;;;;;;;;9.93;99.70;100423.19;4976604;28;19910;-67
2022/12/29 13:01:11;;;;;;;;;;;;;;;9.99;97.88;100410.91;4994876;28;19976;-67
2022/12/29 13:03:39;;;;;;;;;;;;;;;10.01;96.54;100432.44;4982960;28;19910;-67
2022/12/29 13:06:15;;;;;;;;;;;;;;;10.12;95.65;100425.19;4995406;28;19922;-67
2022/12/29 13:09:08;;;;;;;;;;;;;;;10.07;94.97;100423.63;4993908;28;19917;-67
2022/12/29 13:11:52;;;;;;;;;;;;;;;10.11;94.05;100425.25;4994541;28;19920;-67
2022/12/29 13:14:27;;;;;;;;;;;;;;;10.07;94.36;100437.44;4995147;28;19910;-67
2022/12/29 13:16:53;;;;;;;;;;;;;;;10.04;93.96;100439.25;4983369;28;20288;-67
2022/12/29 13:19:21;;;;;;;;;;;;;;;10.06;93.51;100443.50;4995819;28;19909;-64
2022/12/29 13:22:05;;;;;;;;;;;;;;;10.00;94.93;100438.50;4997086;28;19910;-64
2022/12/29 13:24:49;;;;;;;;;;;;;;;9.83;97.71;100444.13;4996752;28;19905;-64